• Join FlightAware (Why Join?)
  • Login
  • US Flag 
03:13PM EDT


 

Airport Tracker/Info


-or-


 

Live Flight TrackerFlight Track Log ✈ AWE3418 ✈ 01-Sep-2013 ✈ KPHL - KMHT

Flight Track Log - Related Links

Times and Time Zones

All times are in EDT time to prevent confusion due to time zone crossing. See the AWE3418 flight status page for this flight to view local times or setup timezone preferences in your user account.

Time Position Orientation Groundspeed Altitude Reporting Facility
EDT Latitude Longitude Course Direction KTS MPH feet Rate Location/Type
07:07PM 39.8667 -75.2667 218° Southwest 145 167 800  Level Philadelphia TRACON
07:08PM 39.8500 -75.2833 218° Southwest 153 176 1,700 1,920 Climbing Philadelphia TRACON
07:09PM 39.8000 -75.3333 218° Southwest 245 282 3,800 2,640 Climbing Philadelphia TRACON
07:11PM 39.7053 -75.2556 148° Southeast 208 239 10,900 2,340 Climbing New York Center
07:12PM 39.7239 -75.1461 77° East 250 288 12,000 540 Climbing New York Center
07:13PM 39.7453 -75.0178 78° East 309 356 12,000  Level New York Center
07:14PM 39.7594 -74.9133 80° East 328 377 12,000 1,080 Level New York Center
07:15PM 39.7967 -74.7994 67° East 333 383 14,200 2,160 Climbing New York Center
07:16PM 39.8561 -74.7081 50° Northeast 328 377 16,400 2,640 Climbing New York Center
07:17PM 39.9403 -74.6181 39° Northeast 338 389 19,500 2,700 Climbing New York Center
07:18PM 40.0144 -74.5219 45° Northeast 352 405 21,900 2,100 Climbing New York Center
07:19PM 40.0858 -74.4361 43° Northeast 364 419 23,800 1,920 Climbing New York Center
07:20PM 40.1681 -74.3400 42° Northeast 379 436 25,800 1,560 Climbing New York Center
07:21PM 40.2525 -74.2356 43° Northeast 397 457 27,000 600 Climbing New York Center
07:22PM 40.3389 -74.1311 43° Northeast 408 470 27,000  Level New York Center
07:23PM 40.4367 -74.0622 28° Northeast 396 456 27,000  Level New York Center
07:24PM 40.5639 -74.0547 North 404 465 27,000  Level New York Center
07:25PM 40.6747 -74.0436 North 399 459 27,000  Level New York Center
07:27PM 40.8408 -74.0286 North 419 482 27,000  Level Boston Center
07:28PM 40.9536 -74.0147 North 424 488 27,000  Level Boston Center
07:29PM 41.0661 -74.0011 North 414 476 27,000  Level Boston Center
07:30PM 41.1789 -73.9872 North 408 470 27,000  Level Boston Center
07:31PM 41.2894 -73.9761 North 403 464 27,000  Level Boston Center
07:32PM 41.4003 -73.9622 North 408 470 27,000  Level Boston Center
07:33PM 41.5131 -73.9483 North 408 470 27,000  Level Boston Center
07:34PM 41.6236 -73.9369 North 408 470 27,000  Level Boston Center
07:35PM 41.7383 -73.9231 North 408 470 27,000  Level Boston Center
07:36PM 41.8344 -73.9142 North 402 463 27,000  Level Boston Center
07:37PM 41.9392 -73.8633 20° North 402 463 27,000  Level Boston Center
07:38PM 42.0114 -73.7422 51° Northeast 380 437 27,000 -240 Level Boston Center
07:39PM 42.0903 -73.5956 54° Northeast 409 471 26,600 -780 Descending Boston Center
07:40PM 42.1581 -73.4736 53° Northeast 415 478 25,500 -1,080 Descending Boston Center
07:41PM 42.2236 -73.3542 53° Northeast 409 471 24,500 -900 Descending Boston Center
07:42PM 42.2786 -73.2539 53° Northeast 389 448 23,700 -1,020 Descending Boston Center
07:43PM 42.3547 -73.1144 54° Northeast 401 461 22,500 -1,380 Descending Boston Center
07:44PM 42.4158 -72.9997 54° Northeast 400 460 21,000 -1,440 Descending Boston Center
07:45PM 42.4767 -72.8847 54° Northeast 389 448 19,600 -1,020 Descending Boston Center
07:46PM 42.5353 -72.7725 55° Northeast 370 426 19,000 -540 Descending Boston Center
07:47PM 42.5961 -72.6600 54° Northeast 365 420 18,600 -1,080 Descending Boston Center
07:48PM 42.6547 -72.5531 53° Northeast 365 420 16,900 -1,560 Descending Boston Center
07:49PM 42.7131 -72.4458 53° Northeast 360 414 15,500 -1,500 Descending Boston Center
07:50PM 42.7692 -72.3411 54° Northeast 360 414 14,000 -1,620 Descending Boston Center
07:51PM 42.7942 -72.2250 74° East 322 371 12,400 -1,560 Descending Boston Center
07:52PM 42.7917 -72.1203 92° East 305 351 10,900 -1,740 Descending Boston Center
07:53PM 42.7850 -71.9989 94° East 295 339 9,000 -1,800 Descending Boston Center
07:54PM 42.7825 -71.8997 92° East 290 334 7,300 -1,920 Descending Boston Center
07:55PM 42.7778 -71.7839 93° East 290 334 5,300 -1,860 Descending Boston Center
07:56PM 42.7731 -71.6933 94° East 283 326 3,700 -1,260 Descending Boston Center
07:57PM 42.7681 -71.5858 94° East 259 298 2,800 -600 Descending Boston Center
07:58PM 42.7675 -71.5153 91° East 219 252 2,500 -180 Descending Boston Center
07:59PM 42.7647 -71.4333 93° East 197 227 2,500  Level Boston Center
08:00PM 42.7747 -71.3708 78° East 192 221 2,500 -240 Level Boston Center
08:01PM 42.8311 -71.3756 356° North 147 169 2,100 -600 Descending Boston Center
08:02PM 42.8686 -71.3975 337° Northwest 147 169 1,300 -840 Descending Boston Center
08:03PM 42.9086 -71.4197 338° Northwest 147 169 500 -540 Descending Boston Center
08:04PM 42.9442 -71.4417 336° Northwest 142 163 300 -240 Descending Boston Center